Time;durP1;ratioP1;P1;durP2;ratioP2;P2;SDS_P1;SDS_P2;PMS_P1;PMS_P2;Temp;Humidity;BMP_temperature;BMP_pressure;BME280_temperature;BME280_humidity;BME280_pressure;Samples;Min_cycle;Max_cycle;Signal;HPM_P1;HPM_P2
2021/10/10 00:01:51;;;;;;;21.90;16.47;;;8.20;1.00;;;;;;5040725;28;20659;-83
2021/10/10 00:04:17;;;;;;;21.27;15.30;;;8.20;1.00;;;;;;5048332;28;20247;-83
2021/10/10 00:06:42;;;;;;;22.40;16.30;;;8.30;1.00;;;;;;5047943;28;20199;-84
2021/10/10 00:09:08;;;;;;;19.83;14.60;;;8.30;1.00;;;;;;5051458;28;20194;-84
2021/10/10 00:11:34;;;;;;;23.37;15.20;;;8.40;1.00;;;;;;5036242;28;20187;-84
2021/10/10 00:14:00;;;;;;;28.07;14.63;;;8.50;1.00;;;;;;5048600;28;20751;-84
2021/10/10 00:16:25;;;;;;;18.40;13.10;;;8.50;1.00;;;;;;5051922;28;20308;-84
2021/10/10 00:18:51;;;;;;;20.47;14.57;;;8.50;1.00;;;;;;5049187;28;20191;-84
2021/10/10 00:21:16;;;;;;;22.77;14.43;;;8.60;1.00;;;;;;5043003;28;20255;-84
2021/10/10 00:23:42;;;;;;;24.47;14.73;;;8.60;1.00;;;;;;5034644;28;20189;-83
2021/10/10 00:26:08;;;;;;;20.10;13.57;;;8.70;1.00;;;;;;5047529;28;20465;-82
2021/10/10 00:28:34;;;;;;;21.20;13.67;;;8.80;1.00;;;;;;5048415;28;20178;-83
2021/10/10 00:30:59;;;;;;;18.23;13.10;;;8.80;1.00;;;;;;5051200;28;20652;-83
2021/10/10 00:33:26;;;;;;;17.83;12.50;;;8.90;1.00;;;;;;5040063;28;20760;-83
2021/10/10 00:35:51;;;;;;;21.80;13.43;;;8.80;1.00;;;;;;5047062;28;20206;-83
2021/10/10 00:38:17;;;;;;;18.70;13.87;;;8.80;1.00;;;;;;5051336;28;20465;-83
2021/10/10 00:40:43;;;;;;;22.70;14.83;;;8.80;1.00;;;;;;5059062;28;20476;-83
2021/10/10 00:43:09;;;;;;;24.93;15.00;;;8.80;1.00;;;;;;5053792;28;20236;-83
2021/10/10 00:45:35;;;;;;;27.47;18.90;;;8.70;1.00;;;;;;5048980;28;20182;-83
2021/10/10 00:48:01;;;;;;;23.10;17.00;;;8.70;1.00;;;;;;5041523;28;20178;-83
2021/10/10 00:50:28;;;;;;;19.90;13.80;;;8.60;1.00;;;;;;5053283;28;20820;-83
2021/10/10 00:52:54;;;;;;;21.37;14.37;;;8.50;1.00;;;;;;5054180;28;20998;-85
2021/10/10 00:55:21;;;;;;;24.13;14.93;;;8.30;1.00;;;;;;5048464;28;20468;-83
2021/10/10 00:57:49;;;;;;;24.97;15.93;;;8.10;1.00;;;;;;5046766;28;20820;-83
2021/10/10 01:00:16;;;;;;;23.20;15.93;;;8.00;1.00;;;;;;5054706;28;21027;-83
2021/10/10 01:02:43;;;;;;;21.73;15.10;;;8.00;1.00;;;;;;5055549;28;20455;-84
2021/10/10 01:05:10;;;;;;;22.33;14.67;;;7.90;1.00;;;;;;5042263;28;21302;-83
2021/10/10 01:07:48;;;;;;;20.90;12.40;;;7.90;1.00;;;;;;5042074;28;20463;-83
2021/10/10 01:10:15;;;;;;;18.43;11.27;;;7.90;1.00;;;;;;5034478;28;20470;-83
2021/10/10 01:12:42;;;;;;;15.37;10.50;;;8.00;1.00;;;;;;5044690;28;20445;-85
2021/10/10 01:15:09;;;;;;;14.70;9.30;;;8.10;1.00;;;;;;5054403;28;20468;-84
2021/10/10 01:17:36;;;;;;;16.60;9.40;;;8.20;1.00;;;;;;5046818;28;20449;-84
2021/10/10 01:20:04;;;;;;;12.83;9.07;;;8.30;1.00;;;;;;5044669;28;20916;-84
2021/10/10 01:22:30;;;;;;;17.17;9.47;;;8.50;1.00;;;;;;5052240;28;21335;-84
2021/10/10 01:24:56;;;;;;;15.33;8.90;;;8.50;1.00;;;;;;5049446;28;20472;-84
2021/10/10 01:27:22;;;;;;;12.73;8.93;;;8.50;1.00;;;;;;5041750;28;20206;-84
2021/10/10 01:29:48;;;;;;;15.73;9.47;;;8.60;1.00;;;;;;5047212;28;20444;-84
2021/10/10 01:32:14;;;;;;;14.17;8.93;;;8.60;1.00;;;;;;5051951;28;20558;-84
2021/10/10 01:34:47;;;;;;;10.90;8.80;;;8.40;1.00;;;;;;5050396;28;21232;-84
2021/10/10 01:37:14;;;;;;;14.37;10.50;;;8.40;1.00;;;;;;5051490;28;20199;-84
2021/10/10 01:39:40;;;;;;;13.13;9.33;;;8.30;1.00;;;;;;5042816;28;20448;-83
2021/10/10 01:42:06;;;;;;;13.73;10.37;;;8.30;1.00;;;;;;5057017;28;20541;-84
2021/10/10 01:44:32;;;;;;;17.97;9.90;;;8.20;1.00;;;;;;5053070;28;20459;-83
2021/10/10 01:46:58;;;;;;;18.23;9.20;;;8.20;1.00;;;;;;5039985;28;20487;-84
2021/10/10 01:49:24;;;;;;;18.10;9.70;;;8.20;1.00;;;;;;5041819;28;20198;-84
2021/10/10 01:51:50;;;;;;;20.63;9.83;;;8.20;1.00;;;;;;5042117;28;20263;-84
2021/10/10 01:54:16;;;;;;;18.50;10.57;;;8.20;1.00;;;;;;5044610;28;20456;-84
2021/10/10 01:56:42;;;;;;;15.47;9.60;;;8.10;1.00;;;;;;5051176;28;20453;-84
2021/10/10 01:59:07;;;;;;;12.97;9.13;;;8.10;1.00;;;;;;5046708;28;20444;-84
2021/10/10 02:01:33;;;;;;;15.60;10.20;;;8.10;1.00;;;;;;5052957;28;20182;-84
2021/10/10 02:04:00;;;;;;;22.80;9.70;;;8.00;1.00;;;;;;5055923;28;20182;-84
2021/10/10 02:06:26;;;;;;;17.00;10.33;;;7.90;1.00;;;;;;5047636;28;20455;-84
2021/10/10 02:08:52;;;;;;;14.13;10.30;;;7.70;1.00;;;;;;5049155;28;20298;-84
2021/10/10 02:11:18;;;;;;;13.90;10.07;;;7.50;1.00;;;;;;5050546;28;20484;-84
2021/10/10 02:13:43;;;;;;;15.47;11.30;;;7.40;1.00;;;;;;5041547;28;20456;-84
2021/10/10 02:16:10;;;;;;;12.93;8.73;;;7.40;1.00;;;;;;5040059;28;20218;-83
2021/10/10 02:18:37;;;;;;;10.80;9.20;;;7.40;1.00;;;;;;5047969;28;20179;-85
2021/10/10 02:21:03;;;;;;;14.00;10.00;;;7.40;1.00;;;;;;5040615;28;20491;-83
2021/10/10 02:23:29;;;;;;;15.80;9.20;;;7.40;1.00;;;;;;5053058;28;20536;-83
2021/10/10 02:25:55;;;;;;;13.57;9.10;;;7.40;1.00;;;;;;5055062;28;20543;-83
2021/10/10 02:28:20;;;;;;;14.37;10.57;;;7.40;1.00;;;;;;5054058;28;20213;-83
2021/10/10 02:30:49;;;;;;;12.90;9.87;;;7.40;1.00;;;;;;5055937;28;20908;-83
2021/10/10 02:33:15;;;;;;;15.47;10.43;;;7.50;1.00;;;;;;5046029;28;20218;-83
2021/10/10 02:35:41;;;;;;;13.63;9.90;;;7.40;1.00;;;;;;5044181;28;20575;-83
2021/10/10 02:38:06;;;;;;;12.93;9.77;;;7.40;1.00;;;;;;5043915;28;20468;-84
2021/10/10 02:40:33;;;;;;;15.27;10.27;;;7.20;1.00;;;;;;5051235;28;20210;-84
2021/10/10 02:42:59;;;;;;;17.20;9.83;;;7.10;1.00;;;;;;5052241;28;20449;-84
2021/10/10 02:45:24;;;;;;;17.57;9.90;;;7.00;1.00;;;;;;5053563;28;20704;-84
2021/10/10 02:47:50;;;;;;;13.27;10.43;;;7.00;1.00;;;;;;5053500;28;20186;-83
2021/10/10 02:50:17;;;;;;;12.53;10.33;;;7.00;1.00;;;;;;5055142;28;20186;-84
2021/10/10 02:52:43;;;;;;;12.87;9.80;;;6.90;1.00;;;;;;5047202;28;20472;-83
2021/10/10 02:55:09;;;;;;;16.63;10.27;;;6.80;1.00;;;;;;5048960;28;20218;-83
2021/10/10 02:57:35;;;;;;;12.10;9.07;;;6.80;1.00;;;;;;5055203;28;20171;-83
2021/10/10 03:00:00;;;;;;;15.70;10.23;;;6.80;1.00;;;;;;5046754;28;20567;-83
2021/10/10 03:02:26;;;;;;;14.90;10.60;;;6.90;1.00;;;;;;5042595;28;20450;-83
2021/10/10 03:04:52;;;;;;;13.73;9.27;;;7.00;1.00;;;;;;5048960;28;20281;-83
2021/10/10 03:07:17;;;;;;;14.70;8.80;;;7.10;1.00;;;;;;5045920;28;20199;-84
2021/10/10 03:09:43;;;;;;;11.03;8.43;;;7.20;1.00;;;;;;5054381;28;20218;-85
2021/10/10 03:12:08;;;;;;;11.40;8.23;;;7.30;1.00;;;;;;5044937;28;20999;-84
2021/10/10 03:14:34;;;;;;;12.00;8.37;;;7.30;1.00;;;;;;5043443;28;20186;-84
2021/10/10 03:17:00;;;;;;;13.53;9.23;;;7.40;1.00;;;;;;5043273;28;20178;-84
2021/10/10 03:19:26;;;;;;;14.30;7.80;;;7.50;1.00;;;;;;5041199;28;20196;-83
2021/10/10 03:21:51;;;;;;;12.33;9.07;;;7.40;1.00;;;;;;5049144;28;20718;-84
2021/10/10 03:24:17;;;;;;;15.13;9.03;;;7.40;1.00;;;;;;5054417;28;20199;-84
2021/10/10 03:26:42;;;;;;;12.20;8.90;;;7.30;1.00;;;;;;5037590;28;20248;-85
2021/10/10 03:29:08;;;;;;;12.27;8.70;;;7.20;1.00;;;;;;5043648;28;20267;-84
2021/10/10 03:31:34;;;;;;;11.70;9.30;;;7.10;1.00;;;;;;5052283;28;20229;-84
2021/10/10 03:33:59;;;;;;;12.27;9.27;;;7.00;1.00;;;;;;5052839;28;20198;-85
2021/10/10 03:36:25;;;;;;;14.83;10.00;;;7.10;1.00;;;;;;5053666;28;20464;-83
2021/10/10 03:38:51;;;;;;;13.40;8.00;;;7.00;1.00;;;;;;5053437;28;20567;-83
2021/10/10 03:41:17;;;;;;;16.70;9.30;;;6.90;1.00;;;;;;5040450;28;20194;-83
2021/10/10 03:43:42;;;;;;;15.80;9.20;;;6.80;1.00;;;;;;5042208;28;20182;-83
2021/10/10 03:46:08;;;;;;;12.20;8.30;;;6.80;1.00;;;;;;5044129;28;20234;-84
2021/10/10 03:48:34;;;;;;;12.77;9.43;;;6.70;1.00;;;;;;5051241;28;20468;-84
2021/10/10 03:51:00;;;;;;;12.20;9.00;;;6.60;1.00;;;;;;5038448;28;20468;-83
2021/10/10 03:53:43;;;;;;;13.10;9.47;;;6.60;1.00;;;;;;5044850;28;20217;-83
2021/10/10 03:56:10;;;;;;;12.40;9.40;;;6.50;1.00;;;;;;5051288;28;20214;-83
2021/10/10 03:58:38;;;;;;;12.27;9.30;;;6.40;1.00;;;;;;5047364;28;20535;-82
2021/10/10 04:01:04;;;;;;;19.13;9.60;;;6.40;1.00;;;;;;5045564;28;20439;-83
2021/10/10 04:03:30;;;;;;;16.37;9.10;;;6.40;1.00;;;;;;5041396;28;21406;-86
2021/10/10 04:05:56;;;;;;;13.87;9.70;;;6.40;1.00;;;;;;5046531;28;20710;-84
2021/10/10 04:08:21;;;;;;;17.90;10.00;;;6.30;1.00;;;;;;5045521;28;20469;-83
2021/10/10 04:10:47;;;;;;;14.17;9.83;;;6.20;1.00;;;;;;5044873;28;20194;-84
2021/10/10 04:13:12;;;;;;;12.30;9.40;;;6.20;1.00;;;;;;5042014;28;20199;-83
2021/10/10 04:15:38;;;;;;;13.73;9.30;;;6.20;1.00;;;;;;5038407;28;20264;-83
2021/10/10 04:18:04;;;;;;;17.37;9.37;;;6.20;1.00;;;;;;5047944;28;20621;-83
2021/10/10 04:20:29;;;;;;;16.80;9.73;;;6.20;1.00;;;;;;5048800;28;20190;-84
2021/10/10 04:22:55;;;;;;;11.77;7.73;;;6.20;1.00;;;;;;5052023;28;20993;-83
2021/10/10 04:25:21;;;;;;;17.43;9.17;;;6.20;1.00;;;;;;5038559;28;20210;-83
2021/10/10 04:27:46;;;;;;;13.37;8.47;;;6.20;1.00;;;;;;5041119;28;20284;-83
2021/10/10 04:30:14;;;;;;;15.10;9.27;;;6.20;1.00;;;;;;5038537;28;20865;-84
2021/10/10 04:32:41;;;;;;;15.97;10.07;;;6.30;1.00;;;;;;5050764;28;20627;-83
2021/10/10 04:35:08;;;;;;;15.17;10.30;;;6.40;1.00;;;;;;5056648;28;20472;-83
2021/10/10 04:37:33;;;;;;;14.77;9.43;;;6.40;1.00;;;;;;5052370;28;20473;-83
2021/10/10 04:39:59;;;;;;;15.40;9.30;;;6.40;1.00;;;;;;5051176;28;20955;-85
2021/10/10 04:42:25;;;;;;;12.00;8.83;;;6.40;1.00;;;;;;5038323;28;20215;-84
2021/10/10 04:44:51;;;;;;;11.57;7.70;;;6.40;1.00;;;;;;5045218;28;20548;-83
2021/10/10 04:47:17;;;;;;;12.17;8.23;;;6.50;1.00;;;;;;5047265;28;20195;-84
2021/10/10 04:49:42;;;;;;;11.40;8.40;;;6.50;1.00;;;;;;5054864;28;20190;-83
2021/10/10 04:52:08;;;;;;;13.23;9.60;;;6.50;1.00;;;;;;5049872;28;20740;-83
2021/10/10 04:54:34;;;;;;;12.47;8.80;;;6.50;1.00;;;;;;5039927;28;20822;-84
2021/10/10 04:57:00;;;;;;;18.07;9.57;;;6.50;1.00;;;;;;5044570;28;20218;-84
2021/10/10 04:59:25;;;;;;;11.83;8.53;;;6.50;1.00;;;;;;5042512;28;21102;-84
2021/10/10 05:01:51;;;;;;;9.80;7.27;;;6.60;1.00;;;;;;5038432;28;20433;-84
2021/10/10 05:04:17;;;;;;;19.30;8.27;;;6.70;1.00;;;;;;5037349;28;20186;-84
2021/10/10 05:06:42;;;;;;;14.67;8.70;;;6.80;1.00;;;;;;5045790;28;20205;-84
2021/10/10 05:09:09;;;;;;;12.50;8.57;;;6.80;1.00;;;;;;5036558;28;20691;-84
2021/10/10 05:11:34;;;;;;;14.77;9.10;;;6.80;1.00;;;;;;5036578;28;20182;-84
2021/10/10 05:14:00;;;;;;;12.30;8.47;;;6.80;1.00;;;;;;5042335;28;20453;-84
2021/10/10 05:16:26;;;;;;;12.97;7.90;;;6.80;1.00;;;;;;5043159;28;20217;-84
2021/10/10 05:18:51;;;;;;;12.70;8.80;;;6.80;1.00;;;;;;5045333;28;20198;-85
2021/10/10 05:21:17;;;;;;;12.27;8.37;;;6.80;1.00;;;;;;5050835;28;20194;-84
2021/10/10 05:23:43;;;;;;;11.83;8.17;;;6.80;1.00;;;;;;5043333;28;20202;-84
2021/10/10 05:26:09;;;;;;;11.97;8.23;;;7.00;1.00;;;;;;5051642;28;20218;-84
2021/10/10 05:28:34;;;;;;;14.60;8.87;;;7.10;1.00;;;;;;5042148;28;20285;-84
2021/10/10 05:31:00;;;;;;;13.60;8.10;;;7.40;1.00;;;;;;5041923;28;20475;-84
2021/10/10 05:33:26;;;;;;;13.87;8.20;;;7.60;1.00;;;;;;5045442;28;21004;-84
2021/10/10 05:35:52;;;;;;;14.20;8.37;;;7.80;1.00;;;;;;5055932;28;20209;-85
2021/10/10 05:38:17;;;;;;;11.23;8.03;;;7.60;1.00;;;;;;5055427;28;20202;-84
2021/10/10 05:40:43;;;;;;;18.07;7.77;;;7.40;1.00;;;;;;5056554;28;20182;-84
2021/10/10 05:43:09;;;;;;;11.00;7.53;;;7.30;1.00;;;;;;5044225;28;20189;-84
2021/10/10 05:45:35;;;;;;;13.60;8.53;;;7.10;1.00;;;;;;5053196;28;20187;-83
2021/10/10 05:48:00;;;;;;;15.70;7.67;;;7.00;1.00;;;;;;5046137;28;20452;-84
2021/10/10 05:50:26;;;;;;;13.50;8.10;;;7.00;1.00;;;;;;5049302;28;20195;-83
2021/10/10 05:52:51;;;;;;;12.90;9.00;;;6.80;1.00;;;;;;5038974;28;20210;-83
2021/10/10 05:55:23;;;;;;;14.33;8.43;;;6.80;1.00;;;;;;5049476;28;20276;-83
2021/10/10 05:57:50;;;;;;;13.13;8.80;;;6.70;1.00;;;;;;5052791;28;20672;-82
2021/10/10 06:00:18;;;;;;;10.57;7.53;;;6.70;1.00;;;;;;5044071;28;20852;-85
2021/10/10 06:02:45;;;;;;;11.60;8.70;;;6.80;1.00;;;;;;5044030;28;20449;-84
2021/10/10 06:05:11;;;;;;;13.13;8.60;;;6.80;1.00;;;;;;5037686;28;20448;-85
2021/10/10 06:07:38;;;;;;;15.93;9.00;;;6.90;1.00;;;;;;5032770;28;20491;-84
2021/10/10 06:10:05;;;;;;;11.07;8.03;;;7.10;1.00;;;;;;5044514;28;20441;-84
2021/10/10 06:12:31;;;;;;;11.83;7.70;;;7.10;1.00;;;;;;5039945;28;20441;-84
2021/10/10 06:15:03;;;;;;;9.77;7.67;;;7.20;1.00;;;;;;5049940;28;21075;-84
2021/10/10 06:17:30;;;;;;;11.23;8.07;;;7.30;1.00;;;;;;5052234;28;20456;-84
2021/10/10 06:19:56;;;;;;;10.60;8.37;;;7.30;1.00;;;;;;5053334;28;20469;-84
2021/10/10 06:22:22;;;;;;;8.87;7.93;;;7.30;1.00;;;;;;5050987;28;21014;-84
2021/10/10 06:24:47;;;;;;;14.10;9.20;;;7.40;1.00;;;;;;5041069;28;20254;-84
2021/10/10 06:27:15;;;;;;;13.93;8.80;;;7.40;1.00;;;;;;5050777;28;20284;-84
2021/10/10 06:29:40;;;;;;;11.00;7.40;;;7.40;1.00;;;;;;5050914;28;20191;-84
2021/10/10 06:32:06;;;;;;;9.87;8.57;;;7.40;1.00;;;;;;5043479;28;20539;-84
2021/10/10 06:34:32;;;;;;;10.97;8.43;;;7.50;1.00;;;;;;5039675;28;20198;-84
2021/10/10 06:36:58;;;;;;;10.07;7.60;;;7.50;1.00;;;;;;5037971;28;20193;-83
2021/10/10 06:39:23;;;;;;;11.20;7.73;;;7.50;1.00;;;;;;5043103;28;20551;-83
2021/10/10 06:41:50;;;;;;;11.23;8.27;;;7.60;1.00;;;;;;5041922;28;20179;-84
2021/10/10 06:44:17;;;;;;;13.53;8.00;;;7.60;1.00;;;;;;5047363;28;20202;-83
2021/10/10 06:46:44;;;;;;;12.30;8.43;;;7.70;1.00;;;;;;5052749;28;20472;-84
2021/10/10 06:49:11;;;;;;;12.53;7.50;;;7.60;1.00;;;;;;5046447;28;20992;-84
2021/10/10 06:51:37;;;;;;;14.70;8.57;;;7.70;1.00;;;;;;5050615;28;20528;-84
2021/10/10 06:54:02;;;;;;;11.80;9.20;;;7.80;1.00;;;;;;5044854;28;20556;-83
2021/10/10 06:56:31;;;;;;;14.30;9.33;;;8.00;1.00;;;;;;5053153;28;20217;-83
2021/10/10 06:59:03;;;;;;;11.90;8.00;;;8.10;1.00;;;;;;5042054;28;20183;-83
2021/10/10 07:01:29;;;;;;;14.07;8.20;;;8.10;1.00;;;;;;5038010;28;20446;-83
2021/10/10 07:03:56;;;;;;;12.17;8.83;;;8.20;1.00;;;;;;5054778;28;21002;-83
2021/10/10 07:06:23;;;;;;;16.17;8.40;;;8.20;1.00;;;;;;5053487;28;20448;-83
2021/10/10 07:08:48;;;;;;;12.20;8.87;;;8.30;1.00;;;;;;5041082;28;22757;-84
2021/10/10 07:11:14;;;;;;;13.20;8.77;;;8.40;1.00;;;;;;5041005;28;20444;-84
2021/10/10 07:13:40;;;;;;;15.50;9.00;;;8.50;1.00;;;;;;5030930;28;20183;-84
2021/10/10 07:16:05;;;;;;;12.77;9.07;;;8.60;1.00;;;;;;5036838;28;20210;-84
2021/10/10 07:18:42;;;;;;;17.47;9.27;;;8.70;1.00;;;;;;5043339;28;20293;-83
2021/10/10 07:26:24;;;;;;;10.20;8.23;;;9.00;1.00;;;;;;5045039;28;20460;-83
2021/10/10 07:28:51;;;;;;;14.93;9.60;;;9.10;1.00;;;;;;5044202;28;20449;-83
2021/10/10 07:31:18;;;;;;;17.80;9.47;;;9.20;1.00;;;;;;5037091;28;20460;-83
2021/10/10 07:33:45;;;;;;;12.80;8.60;;;9.20;1.00;;;;;;5036639;28;20494;-83
2021/10/10 07:36:12;;;;;;;11.50;8.90;;;9.30;1.00;;;;;;5038830;28;20472;-84
2021/10/10 07:38:38;;;;;;;17.57;8.17;;;9.50;1.00;;;;;;5052171;28;20469;-83
2021/10/10 07:41:05;;;;;;;11.90;8.50;;;9.60;1.00;;;;;;5037008;28;20938;-83
2021/10/10 07:43:31;;;;;;;10.40;8.57;;;9.80;1.00;;;;;;5037200;28;20459;-84
2021/10/10 07:46:09;;;;;;;11.50;7.63;;;9.90;1.00;;;;;;5033254;28;20562;-83
2021/10/10 07:48:36;;;;;;;11.57;7.70;;;10.00;1.00;;;;;;5040361;28;20456;-83
2021/10/10 07:51:02;;;;;;;16.23;7.70;;;10.20;1.00;;;;;;5037230;28;20474;-83
2021/10/10 07:53:28;;;;;;;13.63;7.83;;;10.20;1.00;;;;;;5035846;28;20487;-83
2021/10/10 07:55:54;;;;;;;15.03;8.13;;;10.30;1.00;;;;;;5035545;28;20577;-84
2021/10/10 07:58:20;;;;;;;13.17;8.60;;;10.30;1.00;;;;;;5040131;28;20468;-84
2021/10/10 08:00:46;;;;;;;10.40;7.73;;;10.30;1.00;;;;;;5041772;28;20480;-84
2021/10/10 08:03:12;;;;;;;12.33;8.47;;;10.30;1.00;;;;;;5042378;28;20969;-84
2021/10/10 08:05:40;;;;;;;16.07;8.80;;;10.50;1.00;;;;;;5034496;28;20528;-84
2021/10/10 08:08:06;;;;;;;14.50;9.70;;;10.70;1.00;;;;;;5027641;28;20206;-83
2021/10/10 08:10:32;;;;;;;14.53;8.97;;;10.70;1.00;;;;;;5036537;28;20895;-84
2021/10/10 08:12:58;;;;;;;12.20;8.67;;;10.70;1.00;;;;;;5038025;28;20459;-84
2021/10/10 08:15:23;;;;;;;13.40;9.30;;;10.70;1.00;;;;;;5036141;28;20211;-83
2021/10/10 08:17:49;;;;;;;10.50;8.33;;;10.70;1.00;;;;;;5035263;28;20179;-83
2021/10/10 08:20:24;;;;;;;13.57;8.57;;;10.90;1.00;;;;;;5041143;28;20449;-83
2021/10/10 08:22:53;;;;;;;12.10;9.50;;;10.90;1.00;;;;;;5039392;28;20550;-83
2021/10/10 08:25:19;;;;;;;12.03;7.77;;;11.00;1.00;;;;;;5038099;28;20506;-83
2021/10/10 08:27:46;;;;;;;13.20;8.70;;;11.00;1.00;;;;;;5045432;28;20985;-83
2021/10/10 08:30:17;;;;;;;14.80;8.73;;;11.10;1.00;;;;;;5037703;28;20593;-83
2021/10/10 08:32:47;;;;;;;8.67;6.97;;;11.20;1.00;;;;;;5036817;28;20458;-84
2021/10/10 08:35:14;;;;;;;16.17;8.43;;;11.30;1.00;;;;;;5025150;28;20472;-83
2021/10/10 08:37:42;;;;;;;9.97;7.50;;;11.40;1.00;;;;;;5039171;28;21081;-82
2021/10/10 08:40:15;;;;;;;11.37;8.53;;;11.50;1.00;;;;;;5044334;28;20788;-85
2021/10/10 08:42:48;;;;;;;14.93;8.23;;;11.60;1.00;;;;;;5041006;28;20894;-82
2021/10/10 08:45:20;;;;;;;12.40;8.30;;;11.60;1.00;;;;;;5036976;28;20456;-83
2021/10/10 08:47:54;;;;;;;10.63;8.57;;;11.60;1.00;;;;;;5040085;28;20562;-83
2021/10/10 08:50:22;;;;;;;15.60;9.43;;;11.60;1.00;;;;;;5046720;28;20468;-83
2021/10/10 08:52:52;;;;;;;13.30;8.57;;;11.70;1.00;;;;;;5038025;28;20535;-85
2021/10/10 08:55:23;;;;;;;13.10;8.70;;;11.80;1.00;;;;;;5046425;28;20481;-81
2021/10/10 08:57:51;;;;;;;11.67;8.27;;;11.90;1.00;;;;;;5049231;28;20444;-83
2021/10/10 09:00:22;;;;;;;9.07;7.63;;;11.90;1.00;;;;;;5052318;28;21088;-83
2021/10/10 09:02:56;;;;;;;16.73;8.70;;;12.00;1.00;;;;;;5050062;28;20440;-85
2021/10/10 09:05:22;;;;;;;15.60;8.43;;;12.10;1.00;;;;;;5051016;28;20675;-82
2021/10/10 09:07:48;;;;;;;12.03;8.77;;;12.10;1.00;;;;;;5051845;28;20489;-83
2021/10/10 09:10:27;;;;;;;12.37;8.07;;;12.20;1.00;;;;;;5042192;28;20473;-84
2021/10/10 09:13:28;;;;;;;9.93;7.90;;;12.20;1.00;;;;;;5047214;28;20876;-84
2021/10/10 09:15:55;;;;;;;9.20;7.67;;;12.40;1.00;;;;;;5048279;28;20466;-84
2021/10/10 09:18:40;;;;;;;11.70;8.07;;;12.50;1.00;;;;;;5050138;28;21009;-84
2021/10/10 09:21:27;;;;;;;11.53;7.40;;;12.60;1.00;;;;;;5046007;28;20570;-84
2021/10/10 09:23:56;;;;;;;11.00;8.33;;;12.60;1.00;;;;;;5048166;28;20893;-83
2021/10/10 09:26:23;;;;;;;13.97;8.63;;;12.50;1.00;;;;;;5056934;28;20460;-83
2021/10/10 09:28:51;;;;;;;11.87;8.17;;;12.50;1.00;;;;;;5043594;28;20498;-85
2021/10/10 09:31:18;;;;;;;13.70;8.80;;;12.50;1.00;;;;;;5038916;28;20872;-84
2021/10/10 09:33:53;;;;;;;11.77;7.97;;;12.60;1.00;;;;;;5041183;28;21018;-85
2021/10/10 09:36:22;;;;;;;11.90;8.97;;;12.70;1.00;;;;;;5039573;28;20723;-84
2021/10/10 09:41:46;;;;;;;17.20;7.93;;;12.90;1.00;;;;;;5038461;28;20965;-86
2021/10/10 09:44:28;;;;;;;14.67;7.77;;;13.00;1.00;;;;;;5042782;28;20813;-84
2021/10/10 09:46:58;;;;;;;13.47;9.13;;;13.00;1.00;;;;;;5047074;28;21042;-82
2021/10/10 09:49:32;;;;;;;13.00;8.00;;;13.00;1.00;;;;;;5035811;28;20956;-84
2021/10/10 09:52:07;;;;;;;13.17;7.77;;;13.00;1.00;;;;;;5035512;28;20503;-84
2021/10/10 09:54:57;;;;;;;12.03;8.80;;;13.10;1.00;;;;;;5039890;28;20461;-83
2021/10/10 09:57:32;;;;;;;9.67;8.13;;;13.20;1.00;;;;;;5032570;28;20455;-84
2021/10/10 10:00:16;;;;;;;13.73;8.83;;;13.40;1.00;;;;;;5041886;28;20933;-85
2021/10/10 10:02:42;;;;;;;12.33;8.80;;;13.50;1.00;;;;;;5038917;28;20810;-83
2021/10/10 10:05:09;;;;;;;10.30;7.73;;;13.60;1.00;;;;;;5059620;28;20873;-84
2021/10/10 10:07:35;;;;;;;13.43;8.13;;;13.70;1.00;;;;;;5033645;28;20468;-85
2021/10/10 10:10:01;;;;;;;8.57;6.97;;;13.70;1.00;;;;;;5039780;28;20558;-85
2021/10/10 10:12:26;;;;;;;14.33;8.83;;;13.70;1.00;;;;;;5037633;28;20567;-85
2021/10/10 10:15:00;;;;;;;12.80;8.07;;;13.80;1.00;;;;;;5040465;28;22483;-83
2021/10/10 10:17:27;;;;;;;11.93;7.77;;;13.90;1.00;;;;;;5021151;28;20794;-84
2021/10/10 10:19:56;;;;;;;17.83;8.27;;;13.80;1.00;;;;;;5033221;28;20445;-86
2021/10/10 10:22:22;;;;;;;16.27;8.53;;;13.90;1.00;;;;;;5037681;28;20521;-84
2021/10/10 10:24:48;;;;;;;13.57;8.00;;;14.00;1.00;;;;;;5028363;28;20461;-84
2021/10/10 10:27:15;;;;;;;12.50;6.93;;;14.10;1.00;;;;;;5042657;28;20453;-85
2021/10/10 10:29:44;;;;;;;13.77;6.97;;;14.10;1.00;;;;;;5042038;28;20206;-84
2021/10/10 10:32:15;;;;;;;13.77;7.10;;;14.10;1.00;;;;;;5024856;28;20452;-84
2021/10/10 10:35:03;;;;;;;18.87;9.20;;;14.20;1.00;;;;;;5034041;28;20469;-84
2021/10/10 10:37:42;;;;;;;18.00;7.83;;;14.30;1.00;;;;;;5024228;28;20955;-85
2021/10/10 10:40:17;;;;;;;21.20;7.23;;;14.40;1.00;;;;;;5022306;28;20517;-84
2021/10/10 10:43:14;;;;;;;21.43;8.03;;;14.40;1.00;;;;;;5015411;28;20441;-84
2021/10/10 10:45:45;;;;;;;20.60;7.67;;;14.50;1.00;;;;;;5028620;28;21396;-84
2021/10/10 10:48:35;;;;;;;19.90;7.50;;;14.50;1.00;;;;;;5020559;28;20444;-84
2021/10/10 10:51:25;;;;;;;18.87;7.80;;;14.70;1.00;;;;;;5025389;28;20527;-83
2021/10/10 10:54:36;;;;;;;20.87;8.10;;;14.90;1.00;;;;;;5019210;28;20460;-84
2021/10/10 10:57:41;;;;;;;23.87;6.53;;;14.90;1.00;;;;;;5032482;28;21737;-84
2021/10/10 11:00:33;;;;;;;24.37;8.50;;;15.00;1.00;;;;;;5022970;28;20456;-83
2021/10/10 11:03:10;;;;;;;20.80;7.57;;;15.10;1.00;;;;;;5015621;28;20457;-84
2021/10/10 11:05:36;;;;;;;23.63;7.77;;;15.10;1.00;;;;;;5027531;28;20448;-85
2021/10/10 11:08:07;;;;;;;29.60;7.90;;;15.00;1.00;;;;;;5024113;28;20183;-85
2021/10/10 11:10:34;;;;;;;22.40;7.40;;;15.00;1.00;;;;;;5013290;28;20481;-85
2021/10/10 11:13:06;;;;;;;26.27;7.37;;;15.00;1.00;;;;;;5026571;28;20446;-83
2021/10/10 11:15:54;;;;;;;23.90;7.60;;;15.00;1.00;;;;;;5030506;28;20505;-84
2021/10/10 11:18:26;;;;;;;23.10;6.70;;;15.00;1.00;;;;;;5030148;28;20518;-84
2021/10/10 11:21:01;;;;;;;24.00;7.43;;;15.00;1.00;;;;;;5030739;28;20437;-84
2021/10/10 11:24:00;;;;;;;23.47;8.40;;;15.00;1.00;;;;;;5043444;28;20487;-85
2021/10/10 11:26:37;;;;;;;24.20;9.07;;;15.00;1.00;;;;;;5043276;28;20942;-84
2021/10/10 11:29:30;;;;;;;;;;;;;;;;;;;;;
2021/10/10 11:32:26;;;;;;;24.20;6.57;;;15.10;1.00;;;;;;5022685;28;20753;-84
2021/10/10 11:35:34;;;;;;;25.77;7.40;;;15.10;1.00;;;;;;5014102;28;20448;-84
2021/10/10 11:38:12;;;;;;;27.60;7.93;;;15.00;1.00;;;;;;5034989;28;20448;-84
2021/10/10 11:40:59;;;;;;;23.70;7.80;;;15.10;1.00;;;;;;5033740;28;20460;-84
2021/10/10 11:43:37;;;;;;;21.13;7.00;;;15.20;1.00;;;;;;5027733;28;20471;-84
2021/10/10 11:46:06;;;;;;;21.13;7.60;;;15.10;1.00;;;;;;5016275;28;20527;-83
2021/10/10 11:48:46;;;;;;;21.87;7.40;;;15.10;1.00;;;;;;5041404;28;20506;-84
2021/10/10 11:51:50;;;;;;;;;;;;;;;;;;;;;
2021/10/10 11:55:34;;;;;;;23.97;7.63;;;15.10;1.00;;;;;;5023264;28;20468;-84
2021/10/10 11:57:35;;;;;;;21.07;6.90;;;15.20;1.00;;;;;;5032836;28;22170;-84
2021/10/10 12:00:10;;;;;;;22.00;7.47;;;15.30;1.00;;;;;;5021963;28;21003;-84
2021/10/10 12:02:47;;;;;;;23.97;7.03;;;15.30;1.00;;;;;;5028537;28;20440;-84
2021/10/10 12:05:22;;;;;;;22.00;8.00;;;15.30;1.00;;;;;;5029238;28;20535;-84
2021/10/10 12:07:49;;;;;;;19.93;6.80;;;15.20;1.00;;;;;;5021563;28;20478;-84
2021/10/10 12:10:20;;;;;;;23.20;6.73;;;15.00;1.00;;;;;;5038051;28;20472;-84
2021/10/10 12:12:47;;;;;;;18.47;7.20;;;15.00;1.00;;;;;;5038101;28;20458;-84
2021/10/10 12:15:39;;;;;;;18.27;6.87;;;15.10;1.00;;;;;;5019944;28;21009;-84
2021/10/10 12:18:15;;;;;;;19.87;6.57;;;15.20;1.00;;;;;;5020969;28;20995;-84
2021/10/10 12:20:41;;;;;;;20.77;6.47;;;15.40;1.00;;;;;;5036341;28;20550;-84
2021/10/10 12:23:40;;;;;;;21.80;7.20;;;15.40;1.00;;;;;;5026441;28;20460;-84
2021/10/10 12:26:17;;;;;;;22.67;7.23;;;15.60;1.00;;;;;;5014176;28;20736;-84
2021/10/10 12:28:47;;;;;;;16.40;6.23;;;15.70;1.00;;;;;;5020282;28;20448;-84
2021/10/10 12:31:31;;;;;;;17.90;6.30;;;15.80;1.00;;;;;;5041031;28;20456;-84
2021/10/10 12:34:09;;;;;;;17.43;6.33;;;15.90;1.00;;;;;;5039949;28;20456;-84
2021/10/10 12:36:55;;;;;;;15.97;5.77;;;15.80;1.00;;;;;;5037025;28;20460;-84
2021/10/10 12:39:56;;;;;;;12.07;5.30;;;16.00;1.00;;;;;;5047428;28;20855;-85
2021/10/10 12:42:46;;;;;;;17.70;6.73;;;16.00;1.00;;;;;;5030659;28;20429;-85
2021/10/10 12:45:26;;;;;;;14.03;5.97;;;16.10;1.00;;;;;;5027975;28;20471;-84
2021/10/10 12:48:20;;;;;;;11.30;5.73;;;16.20;1.00;;;;;;5039618;28;20443;-83
2021/10/10 12:51:17;;;;;;;8.60;4.53;;;16.20;1.00;;;;;;5052040;28;20444;-85
2021/10/10 12:54:19;;;;;;;9.50;4.87;;;16.10;1.00;;;;;;5028063;28;20448;-84
2021/10/10 12:57:30;;;;;;;13.10;5.33;;;16.20;1.00;;;;;;5033100;28;20473;-84
2021/10/10 13:00:03;;;;;;;8.90;4.73;;;16.30;1.00;;;;;;5026194;28;20441;-83
2021/10/10 13:02:29;;;;;;;13.37;5.40;;;16.20;1.00;;;;;;5034489;28;20451;-84
2021/10/10 13:04:54;;;;;;;11.57;6.07;;;16.20;1.00;;;;;;5025525;28;20492;-85
2021/10/10 13:07:23;;;;;;;9.70;4.40;;;16.20;1.00;;;;;;5032538;28;20249;-84
2021/10/10 13:09:55;;;;;;;7.57;4.50;;;16.20;1.00;;;;;;5045908;28;20201;-84
2021/10/10 13:12:21;;;;;;;10.33;4.40;;;16.20;1.00;;;;;;5056063;28;20440;-85
2021/10/10 13:14:58;;;;;;;;;;;;;;;;;;;;;
2021/10/10 13:17:38;;;;;;;9.10;4.97;;;16.30;1.00;;;;;;5027995;28;20182;-85
2021/10/10 13:20:05;;;;;;;10.07;5.50;;;16.30;1.00;;;;;;5027100;28;20544;-83